sensor_id;sensor_type;location;lat;lon;timestamp;pressure;altitude;pressure_sealevel;temperature;humidity
49813;BME280;35706;52.100;5.056;2023-03-22T00:00:45;100850.66;;;9.86;92.71
49813;BME280;35706;52.100;5.056;2023-03-22T00:01:46;100851.22;;;9.89;92.67
49813;BME280;35706;52.100;5.056;2023-03-22T00:02:46;100847.97;;;9.97;92.28
49813;BME280;35706;52.100;5.056;2023-03-22T00:03:47;100848.44;;;9.81;92.79
49813;BME280;35706;52.100;5.056;2023-03-22T00:04:48;100846.78;;;9.80;92.92
49813;BME280;35706;52.100;5.056;2023-03-22T00:05:48;100846.06;;;9.78;92.93
49813;BME280;35706;52.100;5.056;2023-03-22T00:06:49;100849.41;;;9.80;93.01
49813;BME280;35706;52.100;5.056;2023-03-22T00:07:49;100833.78;;;9.78;93.01
49813;BME280;35706;52.100;5.056;2023-03-22T00:08:53;100843.19;;;9.81;92.84
49813;BME280;35706;52.100;5.056;2023-03-22T00:09:53;100842.34;;;9.81;92.94
49813;BME280;35706;52.100;5.056;2023-03-22T00:10:54;100837.22;;;9.79;93.09
49813;BME280;35706;52.100;5.056;2023-03-22T00:11:54;100844.16;;;9.80;92.93
49813;BME280;35706;52.100;5.056;2023-03-22T00:12:54;100833.78;;;9.78;93.00
49813;BME280;35706;52.100;5.056;2023-03-22T00:13:55;100837.94;;;9.81;92.61
49813;BME280;35706;52.100;5.056;2023-03-22T00:14:56;100843.69;;;9.75;92.94
49813;BME280;35706;52.100;5.056;2023-03-22T00:15:56;100828.41;;;9.80;92.61
49813;BME280;35706;52.100;5.056;2023-03-22T00:16:58;100828.94;;;9.84;92.90
49813;BME280;35706;52.100;5.056;2023-03-22T00:17:59;100826.59;;;9.81;92.77
49813;BME280;35706;52.100;5.056;2023-03-22T00:18:59;100821.75;;;9.76;93.00
49813;BME280;35706;52.100;5.056;2023-03-22T00:20:00;100815.13;;;9.82;92.80
49813;BME280;35706;52.100;5.056;2023-03-22T00:21:00;100816.13;;;9.90;92.43
49813;BME280;35706;52.100;5.056;2023-03-22T00:22:00;100818.97;;;10.08;91.83
49813;BME280;35706;52.100;5.056;2023-03-22T00:23:02;100815.97;;;10.23;90.91
49813;BME280;35706;52.100;5.056;2023-03-22T00:24:03;100828.06;;;10.04;91.34
49813;BME280;35706;52.100;5.056;2023-03-22T00:25:04;100828.78;;;10.06;91.34
49813;BME280;35706;52.100;5.056;2023-03-22T00:26:05;100836.59;;;9.96;91.49
49813;BME280;35706;52.100;5.056;2023-03-22T00:27:05;100834.19;;;9.84;92.20
49813;BME280;35706;52.100;5.056;2023-03-22T00:28:06;100829.09;;;9.82;92.14
49813;BME280;35706;52.100;5.056;2023-03-22T00:29:06;100823.53;;;9.75;92.62
49813;BME280;35706;52.100;5.056;2023-03-22T00:30:07;100830.56;;;9.75;92.40
49813;BME280;35706;52.100;5.056;2023-03-22T00:31:09;100821.53;;;9.89;92.05
49813;BME280;35706;52.100;5.056;2023-03-22T00:32:09;100827.53;;;9.70;92.58
49813;BME280;35706;52.100;5.056;2023-03-22T00:33:10;100820.19;;;9.73;92.75
49813;BME280;35706;52.100;5.056;2023-03-22T00:34:10;100819.97;;;9.86;91.99
49813;BME280;35706;52.100;5.056;2023-03-22T00:35:11;100837.63;;;9.74;92.16
49813;BME280;35706;52.100;5.056;2023-03-22T00:36:11;100819.34;;;9.63;93.08
49813;BME280;35706;52.100;5.056;2023-03-22T00:37:14;100823.09;;;9.70;92.69
49813;BME280;35706;52.100;5.056;2023-03-22T00:38:18;100820.06;;;9.75;92.58
49813;BME280;35706;52.100;5.056;2023-03-22T00:39:18;100814.69;;;9.76;92.47
49813;BME280;35706;52.100;5.056;2023-03-22T00:40:19;100811.56;;;9.83;92.05
49813;BME280;35706;52.100;5.056;2023-03-22T00:41:23;100817.72;;;9.72;92.70
49813;BME280;35706;52.100;5.056;2023-03-22T00:42:23;100808.22;;;9.81;92.05
49813;BME280;35706;52.100;5.056;2023-03-22T00:43:23;100797.59;;;9.82;91.82
49813;BME280;35706;52.100;5.056;2023-03-22T00:44:24;100808.09;;;9.82;91.55
49813;BME280;35706;52.100;5.056;2023-03-22T00:45:24;100807.00;;;9.85;91.44
49813;BME280;35706;52.100;5.056;2023-03-22T00:46:24;100799.78;;;9.77;91.55
49813;BME280;35706;52.100;5.056;2023-03-22T00:47:25;100795.44;;;9.66;92.34
49813;BME280;35706;52.100;5.056;2023-03-22T00:48:25;100797.78;;;9.60;92.71
49813;BME280;35706;52.100;5.056;2023-03-22T00:49:25;100787.91;;;9.83;92.11
49813;BME280;35706;52.100;5.056;2023-03-22T00:50:26;100792.41;;;9.71;92.29
49813;BME280;35706;52.100;5.056;2023-03-22T00:51:26;100791.94;;;9.87;91.80
49813;BME280;35706;52.100;5.056;2023-03-22T00:52:27;100788.69;;;9.73;91.79
49813;BME280;35706;52.100;5.056;2023-03-22T00:53:30;100808.47;;;9.77;91.63
49813;BME280;35706;52.100;5.056;2023-03-22T00:54:35;100786.94;;;9.74;91.65
49813;BME280;35706;52.100;5.056;2023-03-22T00:55:35;100785.38;;;9.71;91.73
49813;BME280;35706;52.100;5.056;2023-03-22T00:56:36;100781.63;;;9.64;92.05
49813;BME280;35706;52.100;5.056;2023-03-22T00:57:37;100781.38;;;9.67;92.16
49813;BME280;35706;52.100;5.056;2023-03-22T00:58:37;100778.91;;;9.75;91.82
49813;BME280;35706;52.100;5.056;2023-03-22T00:59:37;100777.72;;;9.58;92.28
49813;BME280;35706;52.100;5.056;2023-03-22T01:00:39;100778.75;;;9.67;92.05
49813;BME280;35706;52.100;5.056;2023-03-22T01:01:39;100780.00;;;9.73;91.79
49813;BME280;35706;52.100;5.056;2023-03-22T01:02:40;100785.22;;;9.63;91.82
49813;BME280;35706;52.100;5.056;2023-03-22T01:03:42;100775.03;;;9.79;91.33
49813;BME280;35706;52.100;5.056;2023-03-22T01:04:43;100773.88;;;9.93;90.83
49813;BME280;35706;52.100;5.056;2023-03-22T01:05:48;100773.75;;;9.95;90.39
49813;BME280;35706;52.100;5.056;2023-03-22T01:06:48;100764.00;;;9.86;90.67
49813;BME280;35706;52.100;5.056;2023-03-22T01:07:49;100759.50;;;9.97;90.17
49813;BME280;35706;52.100;5.056;2023-03-22T01:08:50;100750.94;;;9.95;89.69
49813;BME280;35706;52.100;5.056;2023-03-22T01:09:51;100750.66;;;9.98;90.14
49813;BME280;35706;52.100;5.056;2023-03-22T01:10:51;100760.50;;;10.06;89.80
49813;BME280;35706;52.100;5.056;2023-03-22T01:11:51;100756.59;;;10.01;89.57
49813;BME280;35706;52.100;5.056;2023-03-22T01:12:51;100749.03;;;10.17;88.97
49813;BME280;35706;52.100;5.056;2023-03-22T01:13:53;100742.25;;;10.14;89.07
49813;BME280;35706;52.100;5.056;2023-03-22T01:14:54;100743.28;;;9.83;89.65
49813;BME280;35706;52.100;5.056;2023-03-22T01:15:55;100739.84;;;9.92;89.95
49813;BME280;35706;52.100;5.056;2023-03-22T01:16:55;100741.66;;;9.91;89.92
49813;BME280;35706;52.100;5.056;2023-03-22T01:17:56;100742.78;;;9.98;89.60
49813;BME280;35706;52.100;5.056;2023-03-22T01:18:57;100743.47;;;10.01;89.61
49813;BME280;35706;52.100;5.056;2023-03-22T01:19:57;100743.06;;;9.95;89.75
49813;BME280;35706;52.100;5.056;2023-03-22T01:20:58;100741.41;;;10.04;89.28
49813;BME280;35706;52.100;5.056;2023-03-22T01:21:58;100738.09;;;10.02;89.41
49813;BME280;35706;52.100;5.056;2023-03-22T01:22:59;100736.81;;;9.87;89.52
49813;BME280;35706;52.100;5.056;2023-03-22T01:23:59;100732.44;;;9.97;89.66
49813;BME280;35706;52.100;5.056;2023-03-22T01:25:00;100731.31;;;9.99;89.34
49813;BME280;35706;52.100;5.056;2023-03-22T01:26:00;100729.34;;;9.92;89.30
49813;BME280;35706;52.100;5.056;2023-03-22T01:27:00;100730.25;;;9.71;89.93
49813;BME280;35706;52.100;5.056;2023-03-22T01:28:01;100721.84;;;9.77;90.17
49813;BME280;35706;52.100;5.056;2023-03-22T01:29:02;100723.81;;;9.85;90.11
49813;BME280;35706;52.100;5.056;2023-03-22T01:30:04;100719.69;;;9.92;89.71
49813;BME280;35706;52.100;5.056;2023-03-22T01:31:05;100725.22;;;9.89;89.21
49813;BME280;35706;52.100;5.056;2023-03-22T01:32:05;100717.69;;;9.75;90.03
49813;BME280;35706;52.100;5.056;2023-03-22T01:33:06;100726.03;;;9.80;90.03
49813;BME280;35706;52.100;5.056;2023-03-22T01:34:06;100714.81;;;9.78;89.71
49813;BME280;35706;52.100;5.056;2023-03-22T01:35:07;100717.88;;;9.83;89.99
49813;BME280;35706;52.100;5.056;2023-03-22T01:36:08;100710.69;;;9.85;89.79
49813;BME280;35706;52.100;5.056;2023-03-22T01:37:08;100708.63;;;9.98;88.94
49813;BME280;35706;52.100;5.056;2023-03-22T01:38:09;100710.31;;;9.99;88.76
49813;BME280;35706;52.100;5.056;2023-03-22T01:39:09;100711.00;;;10.02;88.65
49813;BME280;35706;52.100;5.056;2023-03-22T01:40:11;100703.25;;;10.00;88.50
49813;BME280;35706;52.100;5.056;2023-03-22T01:41:13;100693.84;;;9.88;88.75
49813;BME280;35706;52.100;5.056;2023-03-22T01:42:14;100694.53;;;9.90;88.91
49813;BME280;35706;52.100;5.056;2023-03-22T01:43:15;100699.91;;;9.88;88.71
49813;BME280;35706;52.100;5.056;2023-03-22T01:44:19;100697.16;;;9.90;89.06
49813;BME280;35706;52.100;5.056;2023-03-22T01:45:33;100686.25;;;9.85;89.28
49813;BME280;35706;52.100;5.056;2023-03-22T01:46:34;100690.34;;;9.77;89.65
49813;BME280;35706;52.100;5.056;2023-03-22T01:47:35;100685.41;;;9.94;89.22
49813;BME280;35706;52.100;5.056;2023-03-22T01:48:43;100685.53;;;9.83;89.61
49813;BME280;35706;52.100;5.056;2023-03-22T01:49:48;100674.06;;;9.84;89.52
49813;BME280;35706;52.100;5.056;2023-03-22T01:52:10;100673.91;;;9.75;89.55
49813;BME280;35706;52.100;5.056;2023-03-22T01:53:12;100682.75;;;9.74;89.79
49813;BME280;35706;52.100;5.056;2023-03-22T01:54:31;100674.03;;;9.64;90.07
49813;BME280;35706;52.100;5.056;2023-03-22T01:55:33;100669.34;;;9.68;90.27
49813;BME280;35706;52.100;5.056;2023-03-22T01:56:36;100672.84;;;9.78;90.10
49813;BME280;35706;52.100;5.056;2023-03-22T01:57:37;100669.50;;;9.86;89.50
49813;BME280;35706;52.100;5.056;2023-03-22T01:58:41;100669.09;;;9.90;89.28
49813;BME280;35706;52.100;5.056;2023-03-22T01:59:41;100681.28;;;9.91;89.47
49813;BME280;35706;52.100;5.056;2023-03-22T02:00:46;100666.50;;;10.00;89.17
49813;BME280;35706;52.100;5.056;2023-03-22T02:01:49;100664.00;;;9.98;88.92
49813;BME280;35706;52.100;5.056;2023-03-22T02:02:50;100664.97;;;9.97;89.11
49813;BME280;35706;52.100;5.056;2023-03-22T02:03:56;100666.22;;;10.03;88.64
49813;BME280;35706;52.100;5.056;2023-03-22T02:04:57;100666.78;;;9.97;88.92
49813;BME280;35706;52.100;5.056;2023-03-22T02:05:58;100661.25;;;10.00;89.02
49813;BME280;35706;52.100;5.056;2023-03-22T02:07:05;100663.44;;;10.05;88.82
49813;BME280;35706;52.100;5.056;2023-03-22T02:08:09;100656.41;;;9.95;89.17
49813;BME280;35706;52.100;5.056;2023-03-22T02:09:12;100657.78;;;9.90;89.82
49813;BME280;35706;52.100;5.056;2023-03-22T02:10:22;100657.91;;;9.98;89.64
49813;BME280;35706;52.100;5.056;2023-03-22T02:11:35;100650.75;;;10.10;89.28
49813;BME280;35706;52.100;5.056;2023-03-22T02:12:58;100656.84;;;10.10;89.56
49813;BME280;35706;52.100;5.056;2023-03-22T02:15:23;100648.69;;;10.04;90.12
49813;BME280;35706;52.100;5.056;2023-03-22T02:20:27;100640.25;;;10.19;89.95
49813;BME280;35706;52.100;5.056;2023-03-22T02:26:38;100623.53;;;10.21;90.72
49813;BME280;35706;52.100;5.056;2023-03-22T02:39:07;100620.88;;;10.11;93.47
49813;BME280;35706;52.100;5.056;2023-03-22T02:43:08;100611.66;;;9.97;95.08
49813;BME280;35706;52.100;5.056;2023-03-22T02:45:51;100610.53;;;10.19;94.00
49813;BME280;35706;52.100;5.056;2023-03-22T02:47:01;100609.28;;;10.13;94.53
49813;BME280;35706;52.100;5.056;2023-03-22T02:48:11;100611.91;;;10.13;94.75
49813;BME280;35706;52.100;5.056;2023-03-22T02:49:33;100607.63;;;10.03;95.57
49813;BME280;35706;52.100;5.056;2023-03-22T02:50:50;100593.66;;;10.02;95.58
49813;BME280;35706;52.100;5.056;2023-03-22T02:51:59;100603.31;;;10.11;95.37
49813;BME280;35706;52.100;5.056;2023-03-22T02:53:08;100593.41;;;9.95;96.42
49813;BME280;35706;52.100;5.056;2023-03-22T02:54:17;100609.53;;;10.01;96.52
49813;BME280;35706;52.100;5.056;2023-03-22T02:56:33;100602.22;;;10.04;96.34
49813;BME280;35706;52.100;5.056;2023-03-22T02:57:49;100601.84;;;9.99;97.09
49813;BME280;35706;52.100;5.056;2023-03-22T02:59:01;100601.66;;;10.01;97.29
49813;BME280;35706;52.100;5.056;2023-03-22T03:00:05;100602.38;;;10.12;96.64
49813;BME280;35706;52.100;5.056;2023-03-22T03:01:48;100610.53;;;9.99;97.30
49813;BME280;35706;52.100;5.056;2023-03-22T03:02:53;100596.16;;;9.94;97.84
49813;BME280;35706;52.100;5.056;2023-03-22T03:03:58;100605.00;;;9.93;98.27
49813;BME280;35706;52.100;5.056;2023-03-22T03:05:01;100594.91;;;9.98;97.99
49813;BME280;35706;52.100;5.056;2023-03-22T03:06:05;100592.97;;;10.00;97.83
49813;BME280;35706;52.100;5.056;2023-03-22T03:07:11;100590.63;;;10.07;97.76
49813;BME280;35706;52.100;5.056;2023-03-22T03:08:14;100603.19;;;10.03;97.62
49813;BME280;35706;52.100;5.056;2023-03-22T03:09:18;100605.25;;;10.09;97.65
49813;BME280;35706;52.100;5.056;2023-03-22T03:10:19;100607.22;;;9.97;98.30
49813;BME280;35706;52.100;5.056;2023-03-22T03:11:20;100601.53;;;9.92;98.62
49813;BME280;35706;52.100;5.056;2023-03-22T03:12:23;100600.28;;;9.96;98.65
49813;BME280;35706;52.100;5.056;2023-03-22T03:13:24;100592.16;;;9.99;98.77
49813;BME280;35706;52.100;5.056;2023-03-22T03:14:31;100611.09;;;9.93;98.73
49813;BME280;35706;52.100;5.056;2023-03-22T03:15:31;100597.81;;;9.95;98.96
49813;BME280;35706;52.100;5.056;2023-03-22T03:16:32;100588.28;;;9.94;98.87
49813;BME280;35706;52.100;5.056;2023-03-22T03:19:06;100602.09;;;9.96;98.95
49813;BME280;35706;52.100;5.056;2023-03-22T03:22:19;100596.28;;;9.83;99.97
49813;BME280;35706;52.100;5.056;2023-03-22T03:23:52;100598.09;;;9.92;99.63
49813;BME280;35706;52.100;5.056;2023-03-22T03:25:11;100585.50;;;10.05;98.96
49813;BME280;35706;52.100;5.056;2023-03-22T03:27:34;100593.38;;;10.05;99.00
49813;BME280;35706;52.100;5.056;2023-03-22T03:29:54;100588.13;;;10.05;98.92
49813;BME280;35706;52.100;5.056;2023-03-22T03:31:05;100589.66;;;9.98;99.39
49813;BME280;35706;52.100;5.056;2023-03-22T03:32:18;100588.53;;;10.01;99.15
49813;BME280;35706;52.100;5.056;2023-03-22T03:33:24;100595.19;;;9.95;99.57
49813;BME280;35706;52.100;5.056;2023-03-22T03:34:38;100585.25;;;9.89;100.00
49813;BME280;35706;52.100;5.056;2023-03-22T03:35:54;100584.53;;;9.96;100.00
49813;BME280;35706;52.100;5.056;2023-03-22T03:37:04;100591.03;;;9.92;100.00
49813;BME280;35706;52.100;5.056;2023-03-22T03:38:14;100591.03;;;9.92;100.00
49813;BME280;35706;52.100;5.056;2023-03-22T03:39:19;100579.44;;;9.95;100.00
49813;BME280;35706;52.100;5.056;2023-03-22T03:40:30;100581.50;;;9.91;100.00
49813;BME280;35706;52.100;5.056;2023-03-22T03:41:32;100587.84;;;9.98;100.00
49813;BME280;35706;52.100;5.056;2023-03-22T03:42:34;100586.31;;;9.86;100.00
49813;BME280;35706;52.100;5.056;2023-03-22T03:43:37;100588.97;;;9.96;100.00
49813;BME280;35706;52.100;5.056;2023-03-22T03:44:38;100594.09;;;9.97;100.00
49813;BME280;35706;52.100;5.056;2023-03-22T03:45:39;100578.75;;;9.93;100.00
49813;BME280;35706;52.100;5.056;2023-03-22T03:46:40;100591.31;;;9.89;100.00
49813;BME280;35706;52.100;5.056;2023-03-22T03:47:42;100585.66;;;9.94;100.00
49813;BME280;35706;52.100;5.056;2023-03-22T03:48:46;100591.03;;;9.92;100.00
49813;BME280;35706;52.100;5.056;2023-03-22T03:49:47;100584.97;;;9.92;100.00
49813;BME280;35706;52.100;5.056;2023-03-22T03:50:51;100590.34;;;10.00;100.00
49813;BME280;35706;52.100;5.056;2023-03-22T03:51:53;100585.91;;;10.01;100.00
49813;BME280;35706;52.100;5.056;2023-03-22T03:52:55;100584.53;;;9.96;100.00
49813;BME280;35706;52.100;5.056;2023-03-22T03:53:55;100596.84;;;10.06;100.00
49813;BME280;35706;52.100;5.056;2023-03-22T03:54:55;100586.06;;;9.99;100.00
49813;BME280;35706;52.100;5.056;2023-03-22T03:55:56;100587.88;;;10.08;99.99
49813;BME280;35706;52.100;5.056;2023-03-22T03:56:56;100583.72;;;10.06;99.96
49813;BME280;35706;52.100;5.056;2023-03-22T03:57:56;100592.81;;;9.92;100.00
49813;BME280;35706;52.100;5.056;2023-03-22T03:58:57;100581.09;;;9.96;100.00
49813;BME280;35706;52.100;5.056;2023-03-22T03:59:57;100594.09;;;9.97;100.00
49813;BME280;35706;52.100;5.056;2023-03-22T04:00:57;100593.09;;;9.98;100.00
49813;BME280;35706;52.100;5.056;2023-03-22T04:01:58;100585.22;;;10.08;99.96
49813;BME280;35706;52.100;5.056;2023-03-22T04:02:58;100585.91;;;10.01;100.00
49813;BME280;35706;52.100;5.056;2023-03-22T04:03:58;100588.53;;;10.01;100.00
49813;BME280;35706;52.100;5.056;2023-03-22T04:04:59;100584.69;;;10.05;99.91
49813;BME280;35706;52.100;5.056;2023-03-22T04:05:59;100591.03;;;10.02;100.00
49813;BME280;35706;52.100;5.056;2023-03-22T04:07:02;100583.84;;;10.04;100.00
49813;BME280;35706;52.100;5.056;2023-03-22T04:08:04;100586.06;;;9.99;100.00
49813;BME280;35706;52.100;5.056;2023-03-22T04:09:04;100581.22;;;10.04;100.00
49813;BME280;35706;52.100;5.056;2023-03-22T04:10:05;100581.09;;;10.06;100.00
49813;BME280;35706;52.100;5.056;2023-03-22T04:11:06;100574.72;;;10.08;99.83
49813;BME280;35706;52.100;5.056;2023-03-22T04:12:06;100587.59;;;10.02;100.00
49813;BME280;35706;52.100;5.056;2023-03-22T04:13:08;100569.75;;;10.05;99.90
49813;BME280;35706;52.100;5.056;2023-03-22T04:14:09;100577.50;;;10.16;99.54
49813;BME280;35706;52.100;5.056;2023-03-22T04:15:10;100570.44;;;10.07;99.58
49813;BME280;35706;52.100;5.056;2023-03-22T04:16:11;100573.75;;;10.19;98.96
49813;BME280;35706;52.100;5.056;2023-03-22T04:17:11;100564.34;;;10.16;99.07
49813;BME280;35706;52.100;5.056;2023-03-22T04:18:11;100568.50;;;10.09;100.00
49813;BME280;35706;52.100;5.056;2023-03-22T04:19:12;100573.22;;;10.06;99.80
49813;BME280;35706;52.100;5.056;2023-03-22T04:20:13;100567.94;;;10.15;99.61
49813;BME280;35706;52.100;5.056;2023-03-22T04:21:13;100573.50;;;10.12;99.47
49813;BME280;35706;52.100;5.056;2023-03-22T04:22:15;100565.19;;;10.07;99.93
49813;BME280;35706;52.100;5.056;2023-03-22T04:23:17;100570.16;;;10.01;100.00
49813;BME280;35706;52.100;5.056;2023-03-22T04:24:21;100563.41;;;10.08;100.00
49813;BME280;35706;52.100;5.056;2023-03-22T04:25:21;100575.00;;;10.05;100.00
49813;BME280;35706;52.100;5.056;2023-03-22T04:26:22;100570.59;;;10.06;99.85
49813;BME280;35706;52.100;5.056;2023-03-22T04:27:22;100553.97;;;10.05;99.78
49813;BME280;35706;52.100;5.056;2023-03-22T04:28:23;100558.28;;;10.16;99.36
49813;BME280;35706;52.100;5.056;2023-03-22T04:29:25;100552.34;;;10.14;99.43
49813;BME280;35706;52.100;5.056;2023-03-22T04:30:25;100554.69;;;10.07;99.57
49813;BME280;35706;52.100;5.056;2023-03-22T04:31:26;100559.38;;;10.13;99.26
49813;BME280;35706;52.100;5.056;2023-03-22T04:32:26;100557.16;;;10.09;99.72
49813;BME280;35706;52.100;5.056;2023-03-22T04:33:27;100548.59;;;10.07;99.69
49813;BME280;35706;52.100;5.056;2023-03-22T04:34:27;100562.69;;;10.15;99.52
49813;BME280;35706;52.100;5.056;2023-03-22T04:35:28;100562.16;;;10.12;99.21
49813;BME280;35706;52.100;5.056;2023-03-22T04:36:28;100556.22;;;10.10;99.54
49813;BME280;35706;52.100;5.056;2023-03-22T04:37:30;100558.00;;;10.09;99.54
49813;BME280;35706;52.100;5.056;2023-03-22T04:38:30;100563.41;;;10.08;99.40
49813;BME280;35706;52.100;5.056;2023-03-22T04:39:30;100558.56;;;10.13;99.31
49813;BME280;35706;52.100;5.056;2023-03-22T04:40:31;100562.56;;;10.17;99.04
49813;BME280;35706;52.100;5.056;2023-03-22T04:41:35;100566.16;;;10.16;99.07
49813;BME280;35706;52.100;5.056;2023-03-22T04:42:36;100548.03;;;10.13;99.35
49813;BME280;35706;52.100;5.056;2023-03-22T04:43:37;100555.53;;;10.08;99.47
49813;BME280;35706;52.100;5.056;2023-03-22T04:44:38;100554.41;;;10.10;99.27
49813;BME280;35706;52.100;5.056;2023-03-22T04:45:38;100568.78;;;10.06;99.50
49813;BME280;35706;52.100;5.056;2023-03-22T04:46:39;100547.63;;;10.17;99.13
49813;BME280;35706;52.100;5.056;2023-03-22T04:47:39;100552.03;;;10.17;98.70
49813;BME280;35706;52.100;5.056;2023-03-22T04:48:40;100548.03;;;10.23;98.49
49813;BME280;35706;52.100;5.056;2023-03-22T04:49:41;100536.28;;;10.07;99.14
49813;BME280;35706;52.100;5.056;2023-03-22T04:50:41;100543.63;;;10.13;99.13
49813;BME280;35706;52.100;5.056;2023-03-22T04:51:42;100538.63;;;10.20;98.61
49813;BME280;35706;52.100;5.056;2023-03-22T04:52:42;100544.16;;;10.07;99.03
49813;BME280;35706;52.100;5.056;2023-03-22T04:53:42;100543.91;;;10.10;99.07
49813;BME280;35706;52.100;5.056;2023-03-22T04:54:43;100545.84;;;10.08;99.15
49813;BME280;35706;52.100;5.056;2023-03-22T04:55:43;100536.03;;;10.10;99.14
49813;BME280;35706;52.100;5.056;2023-03-22T04:56:44;100556.59;;;10.15;98.71
49813;BME280;35706;52.100;5.056;2023-03-22T04:57:45;100552.47;;;10.03;99.19
49813;BME280;35706;52.100;5.056;2023-03-22T04:58:45;100540.47;;;10.00;99.48
49813;BME280;35706;52.100;5.056;2023-03-22T04:59:45;100542.78;;;10.13;99.05
49813;BME280;35706;52.100;5.056;2023-03-22T05:00:47;100546.41;;;10.12;98.69
49813;BME280;35706;52.100;5.056;2023-03-22T05:01:47;100549.41;;;10.17;98.62
49813;BME280;35706;52.100;5.056;2023-03-22T05:02:48;100543.63;;;10.13;99.01
49813;BME280;35706;52.100;5.056;2023-03-22T05:03:48;100535.34;;;10.08;98.69
49813;BME280;35706;52.100;5.056;2023-03-22T05:04:49;100530.66;;;10.12;98.66
49813;BME280;35706;52.100;5.056;2023-03-22T05:05:54;100535.03;;;10.11;98.81
49813;BME280;35706;52.100;5.056;2023-03-22T05:06:55;100532.97;;;10.05;98.73
49813;BME280;35706;52.100;5.056;2023-03-22T05:07:55;100524.00;;;10.08;98.73
49813;BME280;35706;52.100;5.056;2023-03-22T05:08:55;100536.28;;;10.07;98.93
49813;BME280;35706;52.100;5.056;2023-03-22T05:09:56;100539.78;;;10.08;98.80
49813;BME280;35706;52.100;5.056;2023-03-22T05:10:57;100533.53;;;10.18;98.33
49813;BME280;35706;52.100;5.056;2023-03-22T05:11:58;100531.16;;;10.15;98.06
49813;BME280;35706;52.100;5.056;2023-03-22T05:12:58;100537.66;;;10.11;98.37
49813;BME280;35706;52.100;5.056;2023-03-22T05:13:58;100542.09;;;10.01;98.73
49813;BME280;35706;52.100;5.056;2023-03-22T05:14:59;100534.22;;;10.01;98.78
49813;BME280;35706;52.100;5.056;2023-03-22T05:16:04;100540.47;;;10.00;98.85
49813;BME280;35706;52.100;5.056;2023-03-22T05:17:05;100538.00;;;9.89;99.33
49813;BME280;35706;52.100;5.056;2023-03-22T05:18:05;100535.75;;;9.94;99.25
49813;BME280;35706;52.100;5.056;2023-03-22T05:19:07;100540.88;;;9.86;99.33
49813;BME280;35706;52.100;5.056;2023-03-22T05:20:13;100539.50;;;9.91;99.33
49813;BME280;35706;52.100;5.056;2023-03-22T05:21:15;100554.97;;;9.85;99.31
49813;BME280;35706;52.100;5.056;2023-03-22T05:22:16;100543.50;;;9.86;99.43
49813;BME280;35706;52.100;5.056;2023-03-22T05:23:18;100539.75;;;9.98;98.84
49813;BME280;35706;52.100;5.056;2023-03-22T05:24:20;100542.09;;;10.01;98.54
49813;BME280;35706;52.100;5.056;2023-03-22T05:25:20;100529.41;;;9.96;98.45
49813;BME280;35706;52.100;5.056;2023-03-22T05:26:21;100519.19;;;9.93;98.87
49813;BME280;35706;52.100;5.056;2023-03-22T05:27:23;100531.19;;;9.86;98.84
49813;BME280;35706;52.100;5.056;2023-03-22T05:28:30;100537.00;;;9.90;98.79
49813;BME280;35706;52.100;5.056;2023-03-22T05:29:30;100519.88;;;9.95;98.84
49813;BME280;35706;52.100;5.056;2023-03-22T05:30:35;100526.34;;;10.01;98.04
49813;BME280;35706;52.100;5.056;2023-03-22T05:31:36;100518.75;;;9.98;98.39
49813;BME280;35706;52.100;5.056;2023-03-22T05:32:36;100528.44;;;9.88;98.63
49813;BME280;35706;52.100;5.056;2023-03-22T05:33:42;100517.94;;;9.88;98.80
49813;BME280;35706;52.100;5.056;2023-03-22T05:34:43;100525.69;;;9.79;99.04
49813;BME280;35706;52.100;5.056;2023-03-22T05:35:44;100514.63;;;9.95;98.45
49813;BME280;35706;52.100;5.056;2023-03-22T05:36:45;100533.00;;;9.95;98.15
49813;BME280;35706;52.100;5.056;2023-03-22T05:37:45;100529.81;;;9.92;98.41
49813;BME280;35706;52.100;5.056;2023-03-22T05:38:45;100515.44;;;9.86;98.60
49813;BME280;35706;52.100;5.056;2023-03-22T05:39:46;100530.81;;;9.91;98.42
49813;BME280;35706;52.100;5.056;2023-03-22T05:40:46;100517.94;;;9.97;97.95
49813;BME280;35706;52.100;5.056;2023-03-22T05:41:49;100520.56;;;9.88;98.03
49813;BME280;35706;52.100;5.056;2023-03-22T05:42:50;100519.19;;;9.84;98.87
49813;BME280;35706;52.100;5.056;2023-03-22T05:43:51;100519.88;;;9.86;98.48
49813;BME280;35706;52.100;5.056;2023-03-22T05:44:51;100513.66;;;9.77;98.83
49813;BME280;35706;52.100;5.056;2023-03-22T05:45:51;100505.94;;;9.85;98.61
49813;BME280;35706;52.100;5.056;2023-03-22T05:46:52;100507.56;;;9.86;98.20
49813;BME280;35706;52.100;5.056;2023-03-22T05:47:52;100507.16;;;9.81;98.39
49813;BME280;35706;52.100;5.056;2023-03-22T05:48:53;100510.34;;;9.85;98.36
49813;BME280;35706;52.100;5.056;2023-03-22T05:49:53;100517.38;;;9.94;97.90
49813;BME280;35706;52.100;5.056;2023-03-22T05:50:53;100510.06;;;9.97;97.51
49813;BME280;35706;52.100;5.056;2023-03-22T05:51:53;100495.28;;;9.87;98.07
49813;BME280;35706;52.100;5.056;2023-03-22T05:52:54;100503.88;;;9.89;98.12
49813;BME280;35706;52.100;5.056;2023-03-22T05:53:55;100514.38;;;9.89;97.89
49813;BME280;35706;52.100;5.056;2023-03-22T05:54:55;100501.94;;;9.91;97.77
49813;BME280;35706;52.100;5.056;2023-03-22T05:55:56;100499.56;;;9.97;97.66
49813;BME280;35706;52.100;5.056;2023-03-22T05:56:59;100504.00;;;9.87;97.44
49813;BME280;35706;52.100;5.056;2023-03-22T05:58:00;100505.38;;;9.91;97.35
49813;BME280;35706;52.100;5.056;2023-03-22T05:59:02;100497.63;;;9.99;97.16
49813;BME280;35706;52.100;5.056;2023-03-22T06:00:08;100492.63;;;10.06;96.66
49813;BME280;35706;52.100;5.056;2023-03-22T06:01:12;100506.88;;;10.04;96.60
49813;BME280;35706;52.100;5.056;2023-03-22T06:02:15;100502.88;;;9.99;96.66
49813;BME280;35706;52.100;5.056;2023-03-22T06:03:15;100506.75;;;9.86;97.10
49813;BME280;35706;52.100;5.056;2023-03-22T06:04:15;100503.88;;;9.89;97.53